createdAt,value
2022-11-25T00:01:24.459Z,7.42
2022-11-25T00:03:53.654Z,7.75
2022-11-25T00:06:25.674Z,7.41
2022-11-25T00:09:05.183Z,7.20
2022-11-25T00:11:34.332Z,7.28
2022-11-25T00:14:00.960Z,7.49
2022-11-25T00:16:27.776Z,7.55
2022-11-25T00:18:56.607Z,7.73
2022-11-25T00:21:25.936Z,7.21
2022-11-25T00:23:54.548Z,7.00
2022-11-25T00:26:22.498Z,7.36
2022-11-25T00:28:50.012Z,7.14
2022-11-25T00:31:16.597Z,6.81
2022-11-25T00:33:43.866Z,7.43
2022-11-25T00:36:31.539Z,7.65
2022-11-25T00:39:12.293Z,8.01
2022-11-25T00:41:57.788Z,7.94
2022-11-25T00:44:37.317Z,8.00
2022-11-25T00:47:16.544Z,7.65
2022-11-25T00:49:51.745Z,7.14
2022-11-25T00:52:24.599Z,7.28
2022-11-25T00:54:52.929Z,7.50
2022-11-25T00:57:23.857Z,7.58
2022-11-25T00:59:50.928Z,7.74
2022-11-25T01:02:19.627Z,7.51
2022-11-25T01:04:47.541Z,7.50
2022-11-25T01:07:14.358Z,7.61
2022-11-25T01:09:41.087Z,7.35
2022-11-25T01:12:08.111Z,7.27
2022-11-25T01:14:35.231Z,7.34
2022-11-25T01:17:02.439Z,7.68
2022-11-25T01:19:29.121Z,7.95
2022-11-25T01:21:55.811Z,8.06
2022-11-25T01:24:24.094Z,7.88
2022-11-25T01:26:51.120Z,7.39
2022-11-25T01:29:19.223Z,7.45
2022-11-25T01:31:47.191Z,7.56
2022-11-25T01:34:17.138Z,7.84
2022-11-25T01:36:43.963Z,7.37
2022-11-25T01:39:18.937Z,7.77
2022-11-25T01:41:46.016Z,7.96
2022-11-25T01:44:21.896Z,7.71
2022-11-25T01:47:05.372Z,7.30
2022-11-25T01:49:41.903Z,7.72
2022-11-25T01:52:23.474Z,7.21
2022-11-25T01:55:10.418Z,8.09
2022-11-25T01:57:48.024Z,7.98
2022-11-25T02:00:15.663Z,7.19
2022-11-25T02:02:43.056Z,7.10
2022-11-25T02:05:13.462Z,7.27
2022-11-25T02:07:43.578Z,7.49
2022-11-25T02:10:18.209Z,7.80
2022-11-25T02:12:46.543Z,7.96
2022-11-25T02:15:14.908Z,7.70
2022-11-25T02:17:43.160Z,7.87
2022-11-25T02:20:18.284Z,7.76
2022-11-25T02:22:54.050Z,7.85
2022-11-25T02:25:27.180Z,7.85
2022-11-25T02:28:08.773Z,7.31
2022-11-25T02:30:35.526Z,7.42
2022-11-25T02:33:02.432Z,7.45
2022-11-25T02:35:43.483Z,7.32
2022-11-25T02:38:26.484Z,8.12
2022-11-25T02:41:06.173Z,8.21
2022-11-25T02:43:33.445Z,7.41
2022-11-25T02:46:04.349Z,7.86
2022-11-25T02:49:06.889Z,7.62
2022-11-25T02:51:23.868Z,7.86
2022-11-25T02:53:51.266Z,7.86
2022-11-25T02:56:19.193Z,7.93
2022-11-25T02:58:45.959Z,7.53
2022-11-25T03:01:12.885Z,7.79
2022-11-25T03:03:39.601Z,7.90
2022-11-25T03:06:06.713Z,7.63
2022-11-25T03:08:33.365Z,7.66
2022-11-25T03:11:00.091Z,7.40
2022-11-25T03:13:27.407Z,7.21
2022-11-25T03:15:54.097Z,7.50
2022-11-25T03:18:20.938Z,7.27
2022-11-25T03:20:47.608Z,7.33
2022-11-25T03:23:14.294Z,7.72
2022-11-25T03:25:40.940Z,7.70
2022-11-25T03:28:07.565Z,7.97
2022-11-25T03:30:34.460Z,7.66
2022-11-25T03:33:01.209Z,7.93
2022-11-25T03:35:28.547Z,7.56
2022-11-25T03:37:55.879Z,7.56
2022-11-25T03:40:22.901Z,7.52
2022-11-25T03:42:49.782Z,7.42
2022-11-25T03:45:17.026Z,7.19
2022-11-25T03:47:44.831Z,6.91
2022-11-25T03:50:13.821Z,6.93
2022-11-25T03:52:40.713Z,7.36
2022-11-25T03:55:08.314Z,7.11
2022-11-25T03:57:35.239Z,7.10
2022-11-25T04:00:02.164Z,7.70
2022-11-25T04:02:29.056Z,7.38
2022-11-25T04:04:55.701Z,7.50
2022-11-25T04:07:22.402Z,7.33
2022-11-25T04:09:49.140Z,7.85
2022-11-25T04:12:34.247Z,7.31
2022-11-25T04:15:00.817Z,7.09
2022-11-25T04:17:27.384Z,6.93
2022-11-25T04:19:53.980Z,7.16
2022-11-25T04:22:20.522Z,6.92
2022-11-25T04:24:47.271Z,7.07
2022-11-25T04:27:13.858Z,7.11
2022-11-25T04:29:40.533Z,7.50
2022-11-25T04:32:07.155Z,7.46
2022-11-25T04:34:34.028Z,7.72
2022-11-25T04:37:00.853Z,7.88
2022-11-25T04:39:27.453Z,7.30
2022-11-25T04:42:14.003Z,7.10
2022-11-25T04:44:40.692Z,7.15
2022-11-25T04:47:07.463Z,7.64
2022-11-25T04:49:34.080Z,7.28
2022-11-25T04:52:00.959Z,7.43
2022-11-25T04:54:27.577Z,7.75
2022-11-25T04:56:54.183Z,7.52
2022-11-25T04:59:39.562Z,7.35
2022-11-25T05:02:15.148Z,7.25
2022-11-25T05:04:43.608Z,7.19
2022-11-25T05:07:10.892Z,7.58
2022-11-25T05:09:37.986Z,7.02
2022-11-25T05:12:05.853Z,6.97
2022-11-25T05:14:32.827Z,6.83
2022-11-25T05:16:59.552Z,6.77
2022-11-25T05:19:26.302Z,7.47
2022-11-25T05:21:52.904Z,7.28
2022-11-25T05:24:19.530Z,7.76
2022-11-25T05:26:46.177Z,7.09
2022-11-25T05:29:12.817Z,7.22
2022-11-25T05:31:39.459Z,6.60
2022-11-25T05:34:06.095Z,7.12
2022-11-25T05:36:32.824Z,7.11
2022-11-25T05:39:00.452Z,7.10
2022-11-25T05:41:27.688Z,7.19
2022-11-25T05:43:54.656Z,7.14
2022-11-25T05:46:21.528Z,6.71
2022-11-25T05:48:48.224Z,6.81
2022-11-25T05:51:14.869Z,7.23
2022-11-25T05:53:41.451Z,7.45
2022-11-25T05:56:09.822Z,6.86
2022-11-25T05:58:36.497Z,6.76
2022-11-25T06:01:07.953Z,6.72
2022-11-25T06:03:35.092Z,6.49
2022-11-25T06:06:02.138Z,6.92
2022-11-25T06:08:28.975Z,6.82
2022-11-25T06:10:55.564Z,6.75
2022-11-25T06:13:22.379Z,6.95
2022-11-25T06:15:49.241Z,6.94
2022-11-25T06:18:17.377Z,6.59
2022-11-25T06:20:44.628Z,6.89
2022-11-25T06:23:11.357Z,7.07
2022-11-25T06:25:37.988Z,7.20
2022-11-25T06:28:12.890Z,7.34
2022-11-25T06:30:39.943Z,7.19
2022-11-25T06:33:06.613Z,6.90
2022-11-25T06:35:33.274Z,6.82
2022-11-25T06:38:00.116Z,6.81
2022-11-25T06:40:26.762Z,7.32
2022-11-25T06:42:53.448Z,7.30
2022-11-25T06:45:20.062Z,7.71
2022-11-25T06:47:46.658Z,7.42
2022-11-25T06:50:13.315Z,7.53
2022-11-25T06:52:39.929Z,7.09
2022-11-25T06:55:06.920Z,7.58
2022-11-25T06:57:33.583Z,7.84
2022-11-25T07:00:00.236Z,6.88
2022-11-25T07:02:26.968Z,7.09
2022-11-25T07:04:53.902Z,6.87
2022-11-25T07:07:20.624Z,7.25
2022-11-25T07:09:47.797Z,7.08
2022-11-25T07:12:14.656Z,7.66
2022-11-25T07:14:41.276Z,7.55
2022-11-25T07:17:11.944Z,7.95
2022-11-25T07:19:39.077Z,7.52
2022-11-25T07:22:05.715Z,7.33
2022-11-25T07:24:33.873Z,8.12
2022-11-25T07:27:00.744Z,7.65
2022-11-25T07:30:03.175Z,7.72
2022-11-25T07:32:14.616Z,7.88
2022-11-25T07:34:41.374Z,8.28
2022-11-25T07:37:08.261Z,8.23
2022-11-25T07:39:35.380Z,8.25
2022-11-25T07:42:02.270Z,7.77
2022-11-25T07:44:28.964Z,7.87
2022-11-25T07:46:55.713Z,8.44
2022-11-25T07:49:26.072Z,7.93
2022-11-25T07:51:59.790Z,7.41
2022-11-25T07:54:26.751Z,7.76
2022-11-25T07:56:53.710Z,7.63
2022-11-25T07:59:22.871Z,7.71
2022-11-25T08:01:51.347Z,7.98
2022-11-25T08:04:20.740Z,7.88
2022-11-25T08:06:49.460Z,7.72
2022-11-25T08:09:19.436Z,8.40
2022-11-25T08:11:47.161Z,7.97
2022-11-25T08:14:14.530Z,7.78
2022-11-25T08:16:41.243Z,8.06
2022-11-25T08:19:11.650Z,7.89
2022-11-25T08:21:38.304Z,7.81
2022-11-25T08:24:05.464Z,7.64
2022-11-25T08:26:36.505Z,7.75
2022-11-25T08:29:07.447Z,7.75
2022-11-25T08:31:37.707Z,8.21
2022-11-25T08:34:07.551Z,7.94
2022-11-25T08:36:35.505Z,7.66
2022-11-25T08:39:22.614Z,7.63
2022-11-25T08:41:52.453Z,7.58
2022-11-25T08:44:19.165Z,7.27
2022-11-25T08:46:45.809Z,7.40
2022-11-25T08:49:13.437Z,7.38
2022-11-25T08:51:40.367Z,7.60
2022-11-25T08:54:08.306Z,7.57
2022-11-25T08:56:35.444Z,7.55
2022-11-25T08:59:02.727Z,7.60
2022-11-25T09:01:29.725Z,8.06
2022-11-25T09:03:57.380Z,8.13
2022-11-25T09:06:27.518Z,8.53
2022-11-25T09:08:58.888Z,8.12
2022-11-25T09:11:26.057Z,8.01
2022-11-25T09:13:52.866Z,8.28
2022-11-25T09:16:20.866Z,8.36
2022-11-25T09:18:52.406Z,8.43
2022-11-25T09:21:22.211Z,7.98
2022-11-25T09:23:51.222Z,8.20
2022-11-25T09:26:39.647Z,8.06
2022-11-25T09:29:06.621Z,8.05
2022-11-25T09:31:33.234Z,7.63
2022-11-25T09:34:00.273Z,7.70
2022-11-25T09:36:26.923Z,7.87
2022-11-25T09:38:53.593Z,8.20
2022-11-25T09:42:23.649Z,8.29
2022-11-25T09:45:33.691Z,7.96
2022-11-25T09:48:34.190Z,8.00
2022-11-25T09:51:09.863Z,8.61
2022-11-25T09:53:43.766Z,8.44
2022-11-25T09:56:17.495Z,8.61
2022-11-25T09:58:59.646Z,8.23
2022-11-25T10:01:30.623Z,8.77
2022-11-25T10:04:05.357Z,8.37
2022-11-25T10:06:53.538Z,8.33
2022-11-25T10:09:26.044Z,8.21
2022-11-25T10:12:01.103Z,8.34
2022-11-25T10:14:53.053Z,7.80
2022-11-25T10:17:31.100Z,7.91
2022-11-25T10:20:05.576Z,8.50
2022-11-25T10:22:35.673Z,8.03
2022-11-25T10:25:13.083Z,8.17
2022-11-25T10:28:03.573Z,8.29
2022-11-25T10:31:01.134Z,7.98
2022-11-25T10:33:32.060Z,7.76
2022-11-25T10:36:14.426Z,7.58
2022-11-25T10:39:02.405Z,7.90
2022-11-25T10:41:33.314Z,7.91
2022-11-25T10:43:59.976Z,8.03
2022-11-25T10:47:12.130Z,7.72
2022-11-25T10:49:50.143Z,7.92
2022-11-25T10:52:23.341Z,7.96
2022-11-25T10:55:18.376Z,8.11
2022-11-25T10:57:45.091Z,7.84
2022-11-25T11:00:34.287Z,7.41
2022-11-25T11:03:15.049Z,7.59
2022-11-25T11:05:48.992Z,7.89
2022-11-25T11:08:22.319Z,7.48
2022-11-25T11:11:13.635Z,7.29
2022-11-25T11:13:40.722Z,7.62
2022-11-25T11:16:36.200Z,7.65
2022-11-25T11:19:04.350Z,8.00
2022-11-25T11:21:34.588Z,8.25
2022-11-25T11:24:02.309Z,8.05
2022-11-25T11:26:34.622Z,7.86
2022-11-25T11:29:07.365Z,7.92
2022-11-25T11:31:41.001Z,7.96
2022-11-25T11:34:26.633Z,8.17
2022-11-25T11:36:53.151Z,8.31
2022-11-25T11:39:35.431Z,8.25
2022-11-25T11:42:19.276Z,8.02
2022-11-25T11:44:51.754Z,8.04
2022-11-25T11:47:35.581Z,7.82
2022-11-25T11:50:26.353Z,7.92
2022-11-25T11:52:59.745Z,7.56
2022-11-25T11:55:35.280Z,7.43
2022-11-25T11:58:14.041Z,7.70
2022-11-25T12:00:56.172Z,7.88
2022-11-25T12:03:25.528Z,7.54
2022-11-25T12:05:55.921Z,7.41
2022-11-25T12:09:02.701Z,7.40
2022-11-25T12:11:40.406Z,7.41
2022-11-25T12:14:35.799Z,7.04
2022-11-25T12:17:12.135Z,7.43
2022-11-25T12:19:55.190Z,7.06
2022-11-25T12:22:46.568Z,7.89
2022-11-25T12:25:35.606Z,8.31
2022-11-25T12:28:12.878Z,8.19
2022-11-25T12:31:04.792Z,7.63
2022-11-25T12:33:51.141Z,8.26
2022-11-25T12:36:39.278Z,7.99
2022-11-25T12:39:28.908Z,7.69
2022-11-25T12:41:59.996Z,7.84
2022-11-25T12:44:35.791Z,7.68
2022-11-25T12:47:02.676Z,7.93
2022-11-25T12:49:32.782Z,7.68
2022-11-25T12:52:18.215Z,7.97
2022-11-25T12:54:44.816Z,7.74
2022-11-25T12:57:19.578Z,7.80
2022-11-25T13:00:01.645Z,7.43
2022-11-25T13:03:13.709Z,7.29
2022-11-25T13:05:49.658Z,7.65
2022-11-25T13:08:37.071Z,8.13
2022-11-25T13:11:41.337Z,7.83
2022-11-25T13:14:20.487Z,8.07
2022-11-25T13:16:49.739Z,7.42
2022-11-25T13:19:19.297Z,7.44
2022-11-25T13:22:01.283Z,7.93
2022-11-25T13:24:40.588Z,8.10
2022-11-25T13:27:52.958Z,7.74
2022-11-25T13:30:31.919Z,7.45
2022-11-25T13:33:18.867Z,7.27
2022-11-25T13:36:08.003Z,7.50
2022-11-25T13:38:58.173Z,7.32
2022-11-25T13:41:33.199Z,7.64
2022-11-25T13:44:14.923Z,7.46
2022-11-25T13:46:47.960Z,7.39
2022-11-25T13:49:31.609Z,7.77
2022-11-25T13:52:03.170Z,7.58
2022-11-25T13:54:45.637Z,7.84
2022-11-25T13:57:12.144Z,8.34
2022-11-25T13:59:51.250Z,7.80
2022-11-25T14:02:29.874Z,7.65
2022-11-25T14:05:30.218Z,7.52
2022-11-25T14:08:17.914Z,7.66
2022-11-25T14:10:46.074Z,7.54
2022-11-25T14:13:46.548Z,7.87
2022-11-25T14:16:43.562Z,7.84
2022-11-25T14:22:31.924Z,7.83
2022-11-25T14:25:19.146Z,7.60
2022-11-25T14:27:52.416Z,7.62
2022-11-25T14:30:19.698Z,7.54
2022-11-25T14:33:11.518Z,7.46
2022-11-25T14:35:47.161Z,7.54
2022-11-25T14:38:19.668Z,8.16
2022-11-25T14:41:08.437Z,7.72
2022-11-25T14:43:45.508Z,7.90
2022-11-25T14:46:20.708Z,8.25
2022-11-25T14:48:55.024Z,7.98
2022-11-25T14:51:22.781Z,8.08
2022-11-25T14:53:51.306Z,8.04
2022-11-25T14:56:31.204Z,8.04
2022-11-25T14:58:59.246Z,7.90
2022-11-25T15:01:34.596Z,7.69
2022-11-25T15:04:13.449Z,7.72
2022-11-25T15:06:42.821Z,7.54
2022-11-25T15:09:30.258Z,7.76
2022-11-25T15:12:02.718Z,7.79
2022-11-25T15:14:33.982Z,7.95
2022-11-25T15:17:06.612Z,7.94
2022-11-25T15:19:36.169Z,8.33
2022-11-25T15:22:23.484Z,8.04
2022-11-25T15:24:55.396Z,8.39
2022-11-25T15:27:27.827Z,7.84
2022-11-25T15:29:57.317Z,8.06
2022-11-25T15:32:29.849Z,7.73
2022-11-25T15:35:00.260Z,8.01
2022-11-25T15:37:28.339Z,7.50
2022-11-25T15:40:56.997Z,7.78
2022-11-25T15:43:29.938Z,8.11
2022-11-25T15:46:00.548Z,8.17
2022-11-25T15:48:40.417Z,7.94
2022-11-25T15:51:43.962Z,7.78
2022-11-25T15:54:37.181Z,8.21
2022-11-25T15:57:16.772Z,8.02
2022-11-25T15:59:51.594Z,8.11
2022-11-25T16:02:47.251Z,7.84
2022-11-25T16:05:14.127Z,7.50
2022-11-25T16:07:49.810Z,7.70
2022-11-25T16:10:50.778Z,7.90
2022-11-25T16:13:22.033Z,7.88
2022-11-25T16:15:56.538Z,7.55
2022-11-25T16:18:46.662Z,7.24
2022-11-25T16:21:21.134Z,7.81
2022-11-25T16:23:51.846Z,7.75
2022-11-25T16:26:25.729Z,7.61
2022-11-25T16:28:58.166Z,7.33
2022-11-25T16:31:28.691Z,7.46
2022-11-25T16:34:02.145Z,7.26
2022-11-25T16:36:28.760Z,7.25
2022-11-25T16:38:55.407Z,7.11
2022-11-25T16:41:25.394Z,7.25
2022-11-25T16:43:52.101Z,7.52
2022-11-25T16:46:20.100Z,7.34
2022-11-25T16:48:47.405Z,7.41
2022-11-25T16:51:17.128Z,7.66
2022-11-25T16:53:44.482Z,7.46
2022-11-25T16:56:26.829Z,7.56
2022-11-25T16:58:54.807Z,7.36
2022-11-25T17:01:24.663Z,7.37
2022-11-25T17:03:51.607Z,7.17
2022-11-25T17:06:22.351Z,7.39
2022-11-25T17:08:50.545Z,7.35
2022-11-25T17:11:28.287Z,7.79
2022-11-25T17:13:56.429Z,7.49
2022-11-25T17:16:26.590Z,6.94
2022-11-25T17:18:55.301Z,7.09
2022-11-25T17:21:26.928Z,6.88
2022-11-25T17:24:11.266Z,7.05
2022-11-25T17:26:40.602Z,7.32
2022-11-25T17:29:13.450Z,7.37
2022-11-25T17:31:41.113Z,7.07
2022-11-25T17:34:13.444Z,7.53
2022-11-25T17:36:40.275Z,7.41
2022-11-25T17:39:07.108Z,7.57
2022-11-25T17:41:39.803Z,7.08
2022-11-25T17:44:09.308Z,7.14
2022-11-25T17:46:35.860Z,7.50
2022-11-25T17:49:02.491Z,7.75
2022-11-25T17:51:29.129Z,7.79
2022-11-25T17:53:55.722Z,7.34
2022-11-25T17:56:30.102Z,7.41
2022-11-25T17:59:02.314Z,7.37
2022-11-25T18:01:28.985Z,7.59
2022-11-25T18:03:55.873Z,7.96
2022-11-25T18:06:23.271Z,7.83
2022-11-25T18:08:50.023Z,7.47
2022-11-25T18:11:18.826Z,7.27
2022-11-25T18:13:47.785Z,7.54
2022-11-25T18:16:18.097Z,7.57
2022-11-25T18:18:44.903Z,7.77
2022-11-25T18:21:11.917Z,7.27
2022-11-25T18:23:38.507Z,7.08
2022-11-25T18:26:05.551Z,7.62
2022-11-25T18:28:32.835Z,7.87
2022-11-25T18:31:04.565Z,7.73
2022-11-25T18:33:31.626Z,7.90
2022-11-25T18:35:58.377Z,8.14
2022-11-25T18:38:28.267Z,7.75
2022-11-25T18:40:58.787Z,7.79
2022-11-25T18:43:30.303Z,7.71
2022-11-25T18:45:57.270Z,7.16
2022-11-25T18:48:26.265Z,7.70
2022-11-25T18:50:56.148Z,8.02
2022-11-25T18:53:23.635Z,7.60
2022-11-25T18:55:50.597Z,7.55
2022-11-25T18:58:27.121Z,7.87
2022-11-25T19:00:59.199Z,7.70
2022-11-25T19:03:26.514Z,8.05
2022-11-25T19:05:59.404Z,7.91
2022-11-25T19:08:25.997Z,7.85
2022-11-25T19:10:52.799Z,7.92
2022-11-25T19:13:26.316Z,7.05
2022-11-25T19:15:53.683Z,7.33
2022-11-25T19:18:25.666Z,7.57
2022-11-25T19:20:52.640Z,7.69
2022-11-25T19:23:30.945Z,7.93
2022-11-25T19:26:11.551Z,7.81
2022-11-25T19:28:38.310Z,7.88
2022-11-25T19:31:05.904Z,8.03
2022-11-25T19:33:38.981Z,7.62
2022-11-25T19:36:06.749Z,7.43
2022-11-25T19:38:34.926Z,7.57
2022-11-25T19:41:01.744Z,7.50
2022-11-25T19:43:28.405Z,7.58
2022-11-25T19:45:57.029Z,7.71
2022-11-25T19:48:27.132Z,7.70
2022-11-25T19:50:59.605Z,7.75
2022-11-25T19:53:33.232Z,7.98
2022-11-25T19:56:04.126Z,7.45
2022-11-25T19:58:31.240Z,7.96
2022-11-25T20:01:02.378Z,7.45
2022-11-25T20:03:31.002Z,6.65
2022-11-25T20:05:58.341Z,7.19
2022-11-25T20:08:27.375Z,6.89
2022-11-25T20:10:55.176Z,6.85
2022-11-25T20:13:23.494Z,6.99
2022-11-25T20:15:50.804Z,7.03
2022-11-25T20:18:22.369Z,7.16
2022-11-25T20:20:56.014Z,6.86
2022-11-25T20:23:43.657Z,6.93
2022-11-25T20:26:38.347Z,6.59
2022-11-25T20:29:19.166Z,6.77
2022-11-25T20:31:46.963Z,7.02
2022-11-25T20:34:14.185Z,7.19
2022-11-25T20:36:43.185Z,7.21
2022-11-25T20:39:17.693Z,6.90
2022-11-25T20:41:48.812Z,7.56
2022-11-25T20:44:15.480Z,7.68
2022-11-25T20:46:42.076Z,7.71
2022-11-25T20:49:23.666Z,7.72
2022-11-25T20:51:50.419Z,7.79
2022-11-25T20:54:17.783Z,8.01
2022-11-25T20:56:44.464Z,7.70
2022-11-25T20:59:20.388Z,7.86
2022-11-25T21:01:47.761Z,7.84
2022-11-25T21:04:14.456Z,7.92
2022-11-25T21:06:41.454Z,8.12
2022-11-25T21:09:16.525Z,8.07
2022-11-25T21:11:43.265Z,7.85
2022-11-25T21:14:18.185Z,7.86
2022-11-25T21:16:45.615Z,7.64
2022-11-25T21:19:12.498Z,7.58
2022-11-25T21:21:45.364Z,7.31
2022-11-25T21:24:32.237Z,7.75
2022-11-25T21:27:01.997Z,7.49
2022-11-25T21:29:29.854Z,7.14
2022-11-25T21:31:56.591Z,7.28
2022-11-25T21:34:23.383Z,7.34
2022-11-25T21:36:52.916Z,7.45
2022-11-25T21:39:27.908Z,7.41
2022-11-25T21:41:55.079Z,6.90
2022-11-25T21:44:28.744Z,6.93
2022-11-25T21:46:55.769Z,7.01
2022-11-25T21:49:24.138Z,6.74
2022-11-25T21:51:50.824Z,6.85
2022-11-25T21:54:17.496Z,7.73
2022-11-25T21:56:44.831Z,7.91
2022-11-25T21:59:18.595Z,7.19
2022-11-25T22:01:45.967Z,7.45
2022-11-25T22:04:15.677Z,7.83
2022-11-25T22:06:42.821Z,8.04
2022-11-25T22:09:10.496Z,8.01
2022-11-25T22:11:45.510Z,7.74
2022-11-25T22:14:18.648Z,7.80
2022-11-25T22:16:45.411Z,7.62
2022-11-25T22:19:22.836Z,7.77
2022-11-25T22:21:49.510Z,7.88
2022-11-25T22:24:17.357Z,7.68
2022-11-25T22:26:46.601Z,7.46
2022-11-25T22:29:15.410Z,7.79
2022-11-25T22:31:42.813Z,7.75
2022-11-25T22:34:20.846Z,7.47
2022-11-25T22:36:48.679Z,7.77
2022-11-25T22:39:16.851Z,7.66
2022-11-25T22:41:46.035Z,7.71
2022-11-25T22:44:19.483Z,8.07
2022-11-25T22:46:47.207Z,8.22
2022-11-25T22:49:28.901Z,7.73
2022-11-25T22:51:56.437Z,8.02
2022-11-25T22:54:23.661Z,7.60
2022-11-25T22:56:50.700Z,7.03
2022-11-25T22:59:17.300Z,7.65
2022-11-25T23:01:44.205Z,7.93
2022-11-25T23:04:20.506Z,7.40
2022-11-25T23:06:47.612Z,7.85
2022-11-25T23:09:17.123Z,7.96
2022-11-25T23:11:44.832Z,8.07
2022-11-25T23:14:12.123Z,8.27
2022-11-25T23:16:40.875Z,8.17
2022-11-25T23:19:18.321Z,7.79
2022-11-25T23:21:45.732Z,8.20
2022-11-25T23:24:15.501Z,8.04
2022-11-25T23:26:43.406Z,7.70
2022-11-25T23:29:10.165Z,8.00
2022-11-25T23:31:38.945Z,7.89
2022-11-25T23:34:07.399Z,8.08
2022-11-25T23:36:42.641Z,7.65
2022-11-25T23:39:21.681Z,7.37
2022-11-25T23:41:48.984Z,7.50
2022-11-25T23:44:22.705Z,7.70
2022-11-25T23:46:49.895Z,7.94
2022-11-25T23:49:20.563Z,7.30
2022-11-25T23:51:47.456Z,7.45
2022-11-25T23:54:16.810Z,7.47
2022-11-25T23:56:43.448Z,7.55
2022-11-25T23:59:13.821Z,6.92
